Time;durP1;ratioP1;P1;durP2;ratioP2;P2;SDS_P1;SDS_P2;PMS_P1;PMS_P2;Temp;Humidity;BMP_temperature;BMP_pressure;BME280_temperature;BME280_humidity;BME280_pressure;Samples;Min_cycle;Max_cycle;Signal;HPM_P1;HPM_P2
2022/07/24 00:02:25;;;;;;;13.55;10.32;;;;;;;19.90;100.00;96547.53;5064573;28;20032;-77
2022/07/24 00:04:50;;;;;;;13.10;11.20;;;;;;;19.92;100.00;96550.78;5100972;28;20612;-76
2022/07/24 00:07:16;;;;;;;11.93;10.70;;;;;;;19.82;100.00;96545.94;5075454;28;20060;-77
2022/07/24 00:09:42;;;;;;;14.18;11.13;;;;;;;19.80;100.00;96544.50;5089650;28;20032;-77
2022/07/24 00:12:08;;;;;;;13.07;9.38;;;;;;;19.80;100.00;96550.63;5095023;28;20424;-76
2022/07/24 00:14:33;;;;;;;13.50;11.45;;;;;;;19.71;100.00;96554.56;5062934;28;20023;-77
2022/07/24 00:16:59;;;;;;;12.77;10.40;;;;;;;19.56;100.00;96554.78;5065618;28;20066;-77
2022/07/24 00:19:25;;;;;;;13.00;10.95;;;;;;;19.42;100.00;96553.97;5081871;28;20033;-77
2022/07/24 00:21:50;;;;;;;12.38;10.00;;;;;;;19.60;100.00;96552.50;5070309;28;20103;-77
2022/07/24 00:24:16;;;;;;;12.10;10.80;;;;;;;19.46;100.00;96549.84;5080778;28;20067;-77
2022/07/24 00:26:42;;;;;;;12.93;11.52;;;;;;;19.21;100.00;96546.19;5067088;28;20039;-77
2022/07/24 00:29:07;;;;;;;13.90;11.70;;;;;;;19.15;100.00;96547.00;5075383;28;20043;-77
2022/07/24 00:31:34;;;;;;;13.18;10.60;;;;;;;19.18;100.00;96547.44;5076599;28;20036;-77
2022/07/24 00:33:59;;;;;;;13.23;10.55;;;;;;;19.25;100.00;96547.44;5094941;28;20118;-76
2022/07/24 00:36:25;;;;;;;13.15;11.07;;;;;;;19.20;100.00;96544.53;5058453;28;20123;-77
2022/07/24 00:38:51;;;;;;;13.65;11.20;;;;;;;19.02;100.00;96542.50;5076635;28;20036;-77
2022/07/24 00:41:17;;;;;;;13.23;11.75;;;;;;;19.02;100.00;96553.97;5077416;28;20318;-77
2022/07/24 00:44:07;;;;;;;12.18;10.00;;;;;;;19.10;100.00;96544.97;5072101;28;20036;-77
2022/07/24 00:46:35;;;;;;;13.00;11.65;;;;;;;19.01;100.00;96548.84;5049403;28;20032;-77
2022/07/24 00:49:03;;;;;;;16.17;11.95;;;;;;;18.87;100.00;96548.00;5099048;28;20102;-77
2022/07/24 00:51:28;;;;;;;14.23;11.45;;;;;;;18.96;100.00;96551.31;5067214;28;20066;-77
2022/07/24 00:53:55;;;;;;;12.90;11.45;;;;;;;18.94;100.00;96545.34;5076875;28;20532;-76
2022/07/24 00:56:21;;;;;;;13.52;10.40;;;;;;;18.86;100.00;96543.72;5075432;28;20089;-77
2022/07/24 00:58:48;;;;;;;12.38;11.00;;;;;;;18.83;100.00;96546.78;5094851;28;20043;-76
2022/07/24 01:01:14;;;;;;;13.05;11.55;;;;;;;18.75;100.00;96547.81;5082908;28;20032;-77
2022/07/24 01:03:40;;;;;;;11.88;10.48;;;;;;;18.93;100.00;96543.72;5072568;28;20039;-77
2022/07/24 01:06:07;;;;;;;13.00;11.40;;;;;;;18.94;100.00;96551.50;5082115;28;20038;-77
2022/07/24 01:08:34;;;;;;;13.80;11.75;;;;;;;18.81;100.00;96552.34;5074022;28;20031;-77
2022/07/24 01:11:01;;;;;;;12.10;10.73;;;;;;;18.83;100.00;96549.44;5095157;28;20035;-76
2022/07/24 01:13:29;;;;;;;13.15;11.80;;;;;;;18.86;100.00;96548.22;5057597;28;20342;-77
2022/07/24 01:15:55;;;;;;;13.75;11.93;;;;;;;18.72;100.00;96547.41;5075801;28;20675;-77
2022/07/24 01:18:20;;;;;;;14.13;11.52;;;;;;;18.68;100.00;96543.44;5102112;28;20019;-76
2022/07/24 01:20:47;;;;;;;13.00;11.55;;;;;;;18.46;100.00;96543.63;5073806;28;20035;-77
2022/07/24 01:23:13;;;;;;;14.00;12.48;;;;;;;18.44;100.00;96542.16;5049240;28;20028;-77
2022/07/24 01:25:41;;;;;;;14.73;12.68;;;;;;;18.44;100.00;96542.97;5078852;28;20047;-77
2022/07/24 01:28:06;;;;;;;14.35;11.27;;;;;;;18.51;100.00;96540.34;5058845;28;20453;-76
2022/07/24 01:30:32;;;;;;;13.75;11.23;;;;;;;18.64;100.00;96544.88;5064958;28;20055;-77
2022/07/24 01:32:58;;;;;;;12.40;11.10;;;;;;;18.58;100.00;96541.19;5082673;28;20531;-78
2022/07/24 01:35:24;;;;;;;15.98;12.30;;;;;;;18.47;100.00;96545.25;5079310;28;20067;-76
2022/07/24 01:37:51;;;;;;;13.93;11.85;;;;;;;18.60;100.00;96547.94;5085979;28;20109;-76
2022/07/24 01:40:17;;;;;;;13.85;11.95;;;;;;;18.60;100.00;96549.78;5070729;28;20032;-77
2022/07/24 01:42:43;;;;;;;16.05;11.93;;;;;;;18.51;100.00;96549.16;5077511;28;20047;-77
2022/07/24 01:45:09;;;;;;;13.57;12.18;;;;;;;18.48;100.00;96549.56;5094994;28;20126;-76
2022/07/24 01:47:35;;;;;;;14.30;11.98;;;;;;;18.39;100.00;96550.78;5094279;28;20040;-76
2022/07/24 01:50:00;;;;;;;14.27;12.23;;;;;;;18.47;100.00;96557.75;5095887;28;20059;-76
2022/07/24 01:52:26;;;;;;;13.63;12.18;;;;;;;18.35;100.00;96562.84;5087421;28;20028;-76
2022/07/24 01:54:53;;;;;;;14.55;12.52;;;;;;;18.38;100.00;96559.78;5086323;28;20477;-76
2022/07/24 01:57:19;;;;;;;16.80;12.07;;;;;;;18.33;100.00;96551.56;5084386;28;20496;-77
2022/07/24 01:59:45;;;;;;;14.55;13.05;;;;;;;18.43;100.00;96554.66;5100019;28;20119;-76
2022/07/24 02:02:11;;;;;;;14.90;13.07;;;;;;;18.24;100.00;96553.59;5102346;28;20032;-76
2022/07/24 02:04:36;;;;;;;16.10;12.50;;;;;;;18.05;100.00;96551.69;5081263;28;20765;-76
2022/07/24 02:07:02;;;;;;;14.10;12.27;;;;;;;18.00;100.00;96557.56;5072476;28;20063;-76
2022/07/24 02:09:28;;;;;;;13.88;12.35;;;;;;;17.95;100.00;96553.88;5077947;28;20040;-76
2022/07/24 02:11:54;;;;;;;13.85;12.23;;;;;;;17.95;100.00;96552.03;5078354;28;20036;-76
2022/07/24 02:14:20;;;;;;;15.23;12.02;;;;;;;17.88;100.00;96551.19;5055197;28;20024;-76
2022/07/24 02:16:45;;;;;;;13.73;11.77;;;;;;;17.87;100.00;96555.69;5090151;28;20031;-76
2022/07/24 02:19:11;;;;;;;14.10;11.93;;;;;;;17.91;100.00;96542.81;5085990;28;20023;-76
2022/07/24 02:21:37;;;;;;;13.40;12.00;;;;;;;17.87;100.00;96552.19;5088558;28;20035;-76
2022/07/24 02:24:04;;;;;;;13.32;11.18;;;;;;;17.77;100.00;96547.25;5090551;28;20042;-76
2022/07/24 02:26:29;;;;;;;13.50;11.30;;;;;;;17.91;100.00;96550.78;5075490;28;20028;-76
2022/07/24 02:28:55;;;;;;;14.10;12.57;;;;;;;17.88;100.00;96552.00;5083762;28;20385;-76
2022/07/24 02:31:21;;;;;;;16.75;14.20;;;;;;;17.86;100.00;96538.06;5084080;28;20039;-76
2022/07/24 02:33:47;;;;;;;16.13;14.43;;;;;;;17.82;100.00;96542.16;5095594;28;20020;-76
2022/07/24 02:36:13;;;;;;;14.98;12.80;;;;;;;17.73;100.00;96540.63;5081113;28;20102;-75
2022/07/24 02:38:39;;;;;;;14.70;13.15;;;;;;;17.65;100.00;96538.97;5074490;28;20485;-76
2022/07/24 02:41:05;;;;;;;15.02;12.27;;;;;;;17.59;100.00;96541.56;5079172;28;20065;-76
2022/07/24 02:43:31;;;;;;;14.43;12.93;;;;;;;17.57;100.00;96543.59;5041565;28;20064;-76
2022/07/24 02:45:57;;;;;;;14.27;12.60;;;;;;;17.47;100.00;96549.28;5063991;28;20031;-76
2022/07/24 02:48:23;;;;;;;15.05;12.40;;;;;;;17.42;100.00;96541.06;5081630;28;20069;-76
2022/07/24 02:50:51;;;;;;;13.90;12.45;;;;;;;17.50;100.00;96538.25;5056556;28;20024;-76
2022/07/24 02:53:17;;;;;;;14.15;12.68;;;;;;;17.49;100.00;96544.59;5053213;28;20482;-77
2022/07/24 02:55:43;;;;;;;16.30;14.05;;;;;;;17.45;100.00;96553.97;5086966;28;20107;-76
2022/07/24 02:58:09;;;;;;;13.60;12.20;;;;;;;17.41;100.00;96550.06;5055336;28;20028;-76
2022/07/24 03:00:35;;;;;;;14.90;12.73;;;;;;;17.44;100.00;96555.00;5094210;28;20043;-75
2022/07/24 03:03:01;;;;;;;13.45;12.05;;;;;;;17.52;100.00;96552.16;5065696;28;20047;-76
2022/07/24 03:05:27;;;;;;;16.15;12.82;;;;;;;17.53;100.00;96545.00;5082248;28;20289;-76
2022/07/24 03:07:53;;;;;;;13.48;11.98;;;;;;;17.62;100.00;96551.81;5067276;28;20036;-76
2022/07/24 03:10:19;;;;;;;14.57;12.57;;;;;;;17.59;100.00;96553.03;5097183;28;20039;-76
2022/07/24 03:12:45;;;;;;;14.02;12.60;;;;;;;17.42;100.00;96555.19;5095971;28;20023;-76
2022/07/24 03:15:12;;;;;;;13.68;12.20;;;;;;;17.32;100.00;96557.34;5093840;28;20031;-76
2022/07/24 03:17:38;;;;;;;14.93;12.93;;;;;;;17.31;100.00;96560.22;5071454;28;20036;-76
2022/07/24 03:20:04;;;;;;;14.48;12.98;;;;;;;17.24;100.00;96554.03;5091233;28;20184;-76
2022/07/24 03:22:30;;;;;;;16.10;13.27;;;;;;;17.25;100.00;96553.81;5069090;28;20039;-76
2022/07/24 03:24:56;;;;;;;16.98;13.02;;;;;;;17.31;100.00;96550.41;5076097;28;20489;-76
2022/07/24 03:27:22;;;;;;;16.73;13.77;;;;;;;17.23;100.00;96557.69;5076599;28;20032;-76
2022/07/24 03:29:47;;;;;;;14.85;12.52;;;;;;;17.33;100.00;96552.84;5072732;28;20054;-76
2022/07/24 03:32:13;;;;;;;15.55;12.95;;;;;;;17.30;100.00;96550.56;5060871;28;20111;-76
2022/07/24 03:34:39;;;;;;;14.85;12.00;;;;;;;17.45;100.00;96543.34;5065194;28;20415;-76
2022/07/24 03:37:04;;;;;;;14.85;12.52;;;;;;;17.48;100.00;96544.78;5095142;28;20016;-76
2022/07/24 03:39:30;;;;;;;14.75;12.80;;;;;;;17.38;100.00;96547.78;5074885;28;20039;-76
2022/07/24 03:41:56;;;;;;;15.35;12.07;;;;;;;17.40;100.00;96548.41;5076690;28;20032;-76
2022/07/24 03:44:21;;;;;;;15.73;11.05;;;;;;;17.33;100.00;96542.22;5086699;28;20035;-76
2022/07/24 03:46:47;;;;;;;14.38;11.35;;;;;;;17.32;100.00;96543.25;5098983;28;20119;-76
2022/07/24 03:49:13;;;;;;;14.48;11.68;;;;;;;17.41;100.00;96544.75;5070501;28;20084;-76
2022/07/24 03:51:39;;;;;;;13.70;11.50;;;;;;;17.44;100.00;96541.69;5088047;28;20046;-76
2022/07/24 03:54:04;;;;;;;13.45;10.98;;;;;;;17.40;100.00;96548.41;5083532;28;20028;-76
2022/07/24 03:56:30;;;;;;;12.07;10.77;;;;;;;17.48;100.00;96537.63;5092876;28;20032;-76
2022/07/24 03:58:56;;;;;;;14.73;10.95;;;;;;;17.47;100.00;96554.63;5094944;28;20012;-76
2022/07/24 04:01:22;;;;;;;13.98;11.27;;;;;;;17.54;100.00;96555.47;5097306;28;20115;-76
2022/07/24 04:03:48;;;;;;;13.10;11.25;;;;;;;17.32;100.00;96557.34;5090595;28;20028;-76
2022/07/24 04:06:14;;;;;;;13.75;12.13;;;;;;;17.24;100.00;96559.34;5084325;28;20032;-76
2022/07/24 04:08:40;;;;;;;14.18;12.68;;;;;;;17.16;100.00;96561.09;5082724;28;20107;-76
2022/07/24 04:11:07;;;;;;;13.68;11.98;;;;;;;17.31;100.00;96557.56;5064733;28;20594;-76
2022/07/24 04:13:33;;;;;;;14.90;12.88;;;;;;;17.39;100.00;96562.72;5100167;28;20115;-76
2022/07/24 04:15:59;;;;;;;14.25;12.75;;;;;;;17.44;100.00;96560.31;5075254;28;20398;-76
2022/07/24 04:18:25;;;;;;;17.33;13.00;;;;;;;17.50;100.00;96562.16;5081201;28;20032;-76
2022/07/24 04:20:51;;;;;;;13.98;11.95;;;;;;;17.52;100.00;96557.50;5083031;28;20324;-76
2022/07/24 04:23:17;;;;;;;15.85;12.60;;;;;;;17.48;100.00;96563.41;5073364;28;20028;-76
2022/07/24 04:25:43;;;;;;;13.43;11.40;;;;;;;17.50;100.00;96567.50;5097635;28;20396;-77
2022/07/24 04:28:08;;;;;;;13.98;12.35;;;;;;;17.44;100.00;96573.59;5055916;28;20035;-76
2022/07/24 04:30:35;;;;;;;14.00;12.40;;;;;;;17.48;100.00;96566.06;5078477;28;20477;-76
2022/07/24 04:33:00;;;;;;;14.82;13.18;;;;;;;17.49;100.00;96573.00;5069146;28;20114;-76
2022/07/24 04:35:26;;;;;;;14.63;12.25;;;;;;;17.54;100.00;96570.56;5082968;28;20023;-76
2022/07/24 04:37:52;;;;;;;12.93;11.02;;;;;;;17.68;100.00;96570.47;5067539;28;20077;-76
2022/07/24 04:40:18;;;;;;;15.60;13.10;;;;;;;17.80;100.00;96565.44;5078819;28;20040;-76
2022/07/24 04:42:44;;;;;;;14.68;13.15;;;;;;;17.65;100.00;96572.72;5077042;28;20019;-76
2022/07/24 04:45:10;;;;;;;15.60;13.20;;;;;;;17.53;100.00;96569.75;5086037;28;20028;-76
2022/07/24 04:47:37;;;;;;;13.85;12.50;;;;;;;17.53;100.00;96579.56;5070910;28;20040;-76
2022/07/24 04:50:05;;;;;;;14.77;12.00;;;;;;;17.70;100.00;96580.09;5097708;28;20030;-75
2022/07/24 04:52:30;;;;;;;14.10;12.27;;;;;;;17.71;100.00;96577.25;5085774;28;20161;-76
2022/07/24 04:54:56;;;;;;;15.82;12.55;;;;;;;17.87;100.00;96576.97;5060605;28;20123;-76
2022/07/24 04:57:22;;;;;;;14.80;11.95;;;;;;;17.99;100.00;96581.72;5077357;28;20056;-76
2022/07/24 04:59:47;;;;;;;14.43;11.93;;;;;;;18.07;100.00;96587.69;5073793;28;20032;-76
2022/07/24 05:02:14;;;;;;;14.07;12.57;;;;;;;18.19;100.00;96581.81;5073207;28;20028;-76
2022/07/24 05:04:40;;;;;;;14.60;11.90;;;;;;;18.04;100.00;96593.44;5096766;28;20113;-76
2022/07/24 05:07:06;;;;;;;16.83;12.15;;;;;;;18.21;100.00;96591.25;5091722;28;20509;-76
2022/07/24 05:09:32;;;;;;;14.57;11.95;;;;;;;18.40;100.00;96592.34;5063182;28;20032;-76
2022/07/24 05:11:57;;;;;;;13.57;11.48;;;;;;;18.42;100.00;96592.16;5088555;28;20036;-76
2022/07/24 05:14:23;;;;;;;13.40;12.00;;;;;;;18.33;100.00;96596.81;5079562;28;20034;-76
2022/07/24 05:16:49;;;;;;;13.13;10.93;;;;;;;18.72;100.00;96590.84;5065123;28;20089;-76
2022/07/24 05:19:14;;;;;;;12.95;10.73;;;;;;;18.87;100.00;96595.97;5087095;28;20103;-76
2022/07/24 05:21:40;;;;;;;13.98;12.05;;;;;;;18.89;100.00;96591.28;5090048;28;20028;-76
2022/07/24 05:24:06;;;;;;;15.38;11.90;;;;;;;18.84;100.00;96599.03;5089533;28;20550;-76
2022/07/24 05:26:32;;;;;;;14.07;11.52;;;;;;;19.04;100.00;96593.75;5073178;28;20047;-76
2022/07/24 05:28:59;;;;;;;15.27;11.10;;;;;;;19.28;100.00;96589.66;5091468;28;20032;-76
2022/07/24 05:31:24;;;;;;;12.98;10.77;;;;;;;19.29;100.00;96591.31;5079427;28;20097;-76
2022/07/24 05:33:50;;;;;;;13.65;11.70;;;;;;;19.25;100.00;96590.09;5097170;28;20491;-76
2022/07/24 05:36:16;;;;;;;12.38;10.80;;;;;;;19.24;100.00;96591.91;5061131;28;20032;-76
2022/07/24 05:38:43;;;;;;;12.90;11.57;;;;;;;19.30;100.00;96579.63;5100611;28;20035;-76
2022/07/24 05:41:10;;;;;;;11.98;10.55;;;;;;;19.47;100.00;96582.69;5096134;28;20035;-76
2022/07/24 05:43:36;;;;;;;16.90;11.50;;;;;;;19.71;100.00;96578.56;5070055;28;20039;-76
2022/07/24 05:46:03;;;;;;;15.05;11.20;;;;;;;20.01;100.00;96579.72;5050362;28;20028;-76
2022/07/24 05:48:29;;;;;;;12.05;10.65;;;;;;;20.41;100.00;96586.78;5063261;28;20036;-76
2022/07/24 05:50:55;;;;;;;12.82;10.43;;;;;;;20.39;100.00;96579.00;5095495;28;20034;-76
2022/07/24 05:53:22;;;;;;;14.15;11.32;;;;;;;20.62;100.00;96585.66;5070702;28;20393;-76
2022/07/24 05:55:48;;;;;;;12.18;10.68;;;;;;;20.82;100.00;96575.69;5075798;28;20035;-76
2022/07/24 05:58:13;;;;;;;13.30;10.93;;;;;;;21.03;100.00;96576.38;5084707;28;20048;-76
2022/07/24 06:00:39;;;;;;;12.55;10.57;;;;;;;21.28;100.00;96574.53;5098514;28;20059;-76
2022/07/24 06:03:05;;;;;;;12.90;10.70;;;;;;;21.39;100.00;96570.34;5060003;28;20019;-76
2022/07/24 06:05:31;;;;;;;11.95;10.63;;;;;;;21.70;100.00;96571.31;5066782;28;20445;-76
2022/07/24 06:07:56;;;;;;;11.40;9.52;;;;;;;22.19;100.00;96564.22;5089215;28;20027;-76
2022/07/24 06:10:22;;;;;;;11.60;9.95;;;;;;;22.29;100.00;96569.84;5082235;28;20029;-76
2022/07/24 06:12:48;;;;;;;12.30;11.00;;;;;;;22.63;100.00;96570.25;5095177;28;20032;-76
2022/07/24 06:15:13;;;;;;;12.45;9.35;;;;;;;22.82;100.00;96563.78;5069835;28;20374;-77
2022/07/24 06:17:40;;;;;;;11.80;10.20;;;;;;;22.64;100.00;96567.34;5099109;28;20047;-76
2022/07/24 06:20:08;;;;;;;13.07;10.32;;;;;;;23.13;100.00;96561.91;5098013;28;20027;-76
2022/07/24 06:22:34;;;;;;;10.93;9.75;;;;;;;23.63;100.00;96565.00;5082622;28;20067;-76
2022/07/24 06:25:00;;;;;;;11.27;9.95;;;;;;;23.83;100.00;96566.53;5073857;28;20431;-76
2022/07/24 06:27:25;;;;;;;13.50;10.40;;;;;;;23.87;100.00;96563.13;5068131;28;20035;-76
2022/07/24 06:29:51;;;;;;;13.93;10.55;;;;;;;24.19;100.00;96557.38;5103930;28;20023;-77
2022/07/24 06:32:17;;;;;;;13.05;10.68;;;;;;;24.53;96.14;96558.34;5092337;28;20035;-76
2022/07/24 06:34:43;;;;;;;11.10;9.93;;;;;;;24.51;98.55;96565.00;5094571;28;20385;-77
2022/07/24 06:37:09;;;;;;;11.73;10.07;;;;;;;24.99;92.96;96559.19;5085928;28;20112;-77
2022/07/24 06:39:34;;;;;;;12.25;9.95;;;;;;;25.13;90.47;96557.84;5075480;28;20043;-76
2022/07/24 06:42:00;;;;;;;11.40;9.95;;;;;;;25.02;91.13;96558.69;5071237;28;20056;-77
2022/07/24 06:44:28;;;;;;;11.98;10.57;;;;;;;24.85;91.56;96572.13;5069348;28;20133;-77
2022/07/24 06:46:53;;;;;;;13.30;9.88;;;;;;;25.14;88.60;96553.28;5092709;28;20135;-76
2022/07/24 06:49:19;;;;;;;12.30;9.60;;;;;;;25.60;86.20;96562.88;5077668;28;20039;-76
2022/07/24 06:51:47;;;;;;;12.38;10.25;;;;;;;25.71;84.93;96560.34;5080245;28;20468;-77
2022/07/24 06:54:13;;;;;;;11.35;10.23;;;;;;;26.16;85.46;96567.47;5095524;28;20485;-76
2022/07/24 06:56:39;;;;;;;11.10;9.23;;;;;;;26.52;83.73;96568.72;5072809;28;20103;-76
2022/07/24 06:59:04;;;;;;;12.65;9.55;;;;;;;26.56;83.42;96565.28;5064798;28;20032;-76
2022/07/24 07:01:30;;;;;;;11.90;9.68;;;;;;;26.99;79.14;96560.84;5097373;28;20210;-77
2022/07/24 07:03:56;;;;;;;13.40;10.20;;;;;;;26.99;75.55;96563.56;5088532;28;20153;-76
2022/07/24 07:06:22;;;;;;;10.88;9.77;;;;;;;27.02;76.37;96557.66;5090051;28;20114;-76
2022/07/24 07:08:48;;;;;;;11.20;9.68;;;;;;;27.30;76.12;96557.63;5079027;28;20023;-77
2022/07/24 07:11:14;;;;;;;10.15;8.82;;;;;;;27.74;71.51;96556.34;5077955;28;20054;-77
2022/07/24 07:13:39;;;;;;;12.60;10.10;;;;;;;27.64;69.70;96564.41;5095215;28;20113;-77
2022/07/24 07:16:05;;;;;;;12.32;9.10;;;;;;;28.00;69.90;96561.13;5049366;28;20460;-77
2022/07/24 07:18:31;;;;;;;11.32;9.18;;;;;;;28.53;66.23;96560.03;5076335;28;20032;-77
2022/07/24 07:20:57;;;;;;;9.90;8.90;;;;;;;28.66;65.44;96564.13;5089818;28;20114;-77
2022/07/24 07:23:26;;;;;;;11.95;10.63;;;;;;;28.24;66.69;96565.03;5052024;28;20558;-76
2022/07/24 07:25:53;;;;;;;12.40;10.18;;;;;;;28.21;65.46;96560.16;5085259;28;20035;-77
2022/07/24 07:28:18;;;;;;;10.70;9.65;;;;;;;28.22;66.95;96558.25;5088830;28;20069;-77
2022/07/24 07:30:44;;;;;;;13.73;10.38;;;;;;;27.84;69.74;96552.94;5087737;28;20032;-76
2022/07/24 07:33:10;;;;;;;10.23;8.82;;;;;;;28.84;62.92;96555.53;5080816;28;20104;-77
2022/07/24 07:35:35;;;;;;;9.30;8.25;;;;;;;29.48;61.76;96556.94;5067700;28;20020;-77
2022/07/24 07:38:01;;;;;;;10.25;8.95;;;;;;;29.52;62.14;96555.31;5097284;28;20027;-77
2022/07/24 07:40:27;;;;;;;10.65;9.55;;;;;;;30.20;59.11;96557.66;5078912;28;20073;-76
2022/07/24 07:42:53;;;;;;;13.68;10.00;;;;;;;29.25;56.40;96554.78;5100118;28;20031;-77
2022/07/24 07:45:18;;;;;;;10.13;9.05;;;;;;;29.33;58.16;96563.16;5084176;28;20024;-76
2022/07/24 07:47:45;;;;;;;11.15;9.65;;;;;;;29.18;55.98;96565.88;5063250;28;20028;-77
2022/07/24 07:50:11;;;;;;;10.82;8.50;;;;;;;29.90;52.33;96560.44;5103080;28;20051;-77
2022/07/24 07:52:37;;;;;;;11.65;8.95;;;;;;;30.20;52.10;96557.66;5095913;28;20108;-77
2022/07/24 07:55:04;;;;;;;10.25;9.25;;;;;;;29.54;53.02;96557.72;5073211;28;20059;-77
2022/07/24 07:57:29;;;;;;;11.20;8.98;;;;;;;29.53;52.60;96561.53;5079442;28;20055;-77
2022/07/24 07:59:55;;;;;;;12.38;9.00;;;;;;;29.66;52.10;96565.63;5062967;28;20032;-77
2022/07/24 08:02:21;;;;;;;10.80;9.18;;;;;;;29.24;53.01;96562.09;5057843;28;20053;-77
2022/07/24 08:04:46;;;;;;;9.05;7.97;;;;;;;29.87;54.04;96560.97;5080157;28;20102;-77
2022/07/24 08:07:12;;;;;;;11.52;8.98;;;;;;;30.41;52.60;96561.09;5100352;28;20089;-77
2022/07/24 08:09:38;;;;;;;9.77;8.05;;;;;;;30.62;50.32;96559.13;5093721;28;20036;-77
2022/07/24 08:12:04;;;;;;;12.10;9.40;;;;;;;30.70;52.46;96557.72;5101383;28;20028;-77
2022/07/24 08:14:30;;;;;;;9.57;7.82;;;;;;;31.11;51.77;96563.72;5075899;28;20067;-77
2022/07/24 08:16:56;;;;;;;10.43;8.90;;;;;;;30.97;51.21;96565.44;5102903;28;20461;-77
2022/07/24 08:19:22;;;;;;;10.05;8.27;;;;;;;30.73;49.28;96574.25;5094929;28;20035;-77
2022/07/24 08:21:48;;;;;;;9.82;8.38;;;;;;;31.21;48.27;96569.06;5081821;28;20046;-77
2022/07/24 08:24:20;;;;;;;12.20;9.10;;;;;;;30.58;50.32;96565.38;5083876;28;20052;-77
2022/07/24 08:26:50;;;;;;;11.85;9.20;;;;;;;29.69;54.07;96575.94;5067331;28;20798;-77
2022/07/24 08:29:17;;;;;;;10.40;9.02;;;;;;;30.16;50.74;96561.97;5088990;28;20031;-76
2022/07/24 08:31:43;;;;;;;9.48;8.32;;;;;;;30.61;50.46;96562.09;5094556;28;20031;-77
2022/07/24 08:34:08;;;;;;;9.93;7.47;;;;;;;30.84;48.69;96563.34;5096975;28;20023;-77
2022/07/24 08:36:34;;;;;;;9.13;8.20;;;;;;;30.47;48.44;96559.19;5095606;28;20086;-77
2022/07/24 08:39:00;;;;;;;10.95;8.63;;;;;;;31.05;45.91;96553.16;5081623;28;20027;-77
2022/07/24 08:41:32;;;;;;;9.60;8.25;;;;;;;30.79;46.18;96560.69;5100380;28;20028;-78
2022/07/24 08:43:59;;;;;;;9.13;7.53;;;;;;;31.46;46.38;96553.72;5074841;28;20437;-77
2022/07/24 08:46:26;;;;;;;10.35;8.55;;;;;;;31.29;45.19;96561.41;5072855;28;20035;-77
2022/07/24 08:48:53;;;;;;;9.40;7.53;;;;;;;32.38;42.68;96561.72;5102100;28;20028;-77
2022/07/24 08:51:21;;;;;;;10.80;7.80;;;;;;;32.70;42.33;96554.84;5094484;28;20028;-76
2022/07/24 08:53:47;;;;;;;9.35;8.38;;;;;;;32.87;42.11;96557.03;5054115;28;20031;-76
2022/07/24 08:56:13;;;;;;;8.40;7.60;;;;;;;33.02;41.22;96554.13;5061826;28;20032;-77
2022/07/24 08:58:40;;;;;;;9.95;8.18;;;;;;;32.39;40.75;96560.66;5081854;28;20020;-78
2022/07/24 09:01:07;;;;;;;9.18;7.25;;;;;;;33.14;39.96;96558.31;5064326;28;20416;-77
2022/07/24 09:03:44;;;;;;;9.10;6.93;;;;;;;32.95;39.73;96552.84;5084567;28;20046;-77
2022/07/24 09:06:11;;;;;;;11.13;8.20;;;;;;;33.04;40.01;96554.63;5083724;28;20036;-77
2022/07/24 09:08:40;;;;;;;13.75;9.38;;;;;;;33.81;37.37;96544.41;5077008;28;20106;-77
2022/07/24 09:11:09;;;;;;;10.75;7.65;;;;;;;32.80;39.82;96548.44;5084004;28;20042;-77
2022/07/24 09:16:25;;;;;;;9.38;7.30;;;;;;;32.85;38.58;96540.19;5078329;28;20481;-77
2022/07/24 09:19:02;;;;;;;8.32;7.30;;;;;;;32.77;38.56;96532.69;5064643;28;20027;-77
2022/07/24 09:21:33;;;;;;;10.48;7.65;;;;;;;33.16;39.37;96539.75;5083581;28;20036;-77
2022/07/24 09:24:02;;;;;;;9.35;7.60;;;;;;;33.33;38.83;96529.09;5082019;28;20039;-76
2022/07/24 09:26:45;;;;;;;8.77;7.78;;;;;;;33.75;38.20;96530.03;5075353;28;20093;-77
2022/07/24 09:29:12;;;;;;;8.88;7.28;;;;;;;35.21;34.23;96525.66;5078661;28;20019;-77
2022/07/24 09:31:58;;;;;;;7.72;6.85;;;;;;;33.98;34.66;96533.72;5057614;28;20613;-77
2022/07/24 09:34:26;;;;;;;10.00;6.38;;;;;;;33.36;36.00;96531.22;5089252;28;20028;-78
2022/07/24 09:37:00;;;;;;;9.75;7.13;;;;;;;34.29;34.69;96523.00;5064855;28;20075;-78
2022/07/24 09:39:28;;;;;;;9.35;6.82;;;;;;;34.09;35.74;96532.41;5077730;28;20028;-78
2022/07/24 09:41:56;;;;;;;7.88;6.90;;;;;;;34.70;34.60;96522.16;5091502;28;20028;-77
2022/07/24 09:44:25;;;;;;;9.32;7.10;;;;;;;35.26;33.89;96520.09;5090070;28;20036;-77
2022/07/24 09:46:57;;;;;;;8.82;7.15;;;;;;;34.90;35.41;96526.34;5067963;28;20020;-77
2022/07/24 09:49:24;;;;;;;9.13;6.97;;;;;;;34.31;34.96;96533.63;5092429;28;20044;-78
2022/07/24 09:52:05;;;;;;;8.30;7.07;;;;;;;34.84;34.35;96530.31;5050349;28;20047;-77
2022/07/24 09:54:36;;;;;;;7.80;6.60;;;;;;;34.33;34.13;96532.22;5099308;28;20104;-79
2022/07/24 09:57:20;;;;;;;7.40;6.60;;;;;;;34.78;35.08;96535.09;5073466;28;20050;-78
2022/07/24 09:59:59;;;;;;;9.88;6.88;;;;;;;34.35;34.15;96530.00;5078602;28;20489;-77
2022/07/24 10:02:31;;;;;;;7.72;6.50;;;;;;;34.24;34.80;96528.59;5082906;28;20123;-77
2022/07/24 10:16:05;;;;;;;8.82;6.95;;;;;;;34.67;33.97;96517.31;5090392;22;20064;-77
2022/07/24 10:22:15;;;;;;;8.25;7.05;;;;;;;34.41;33.40;96511.59;5039808;28;20562;-77
2022/07/24 10:25:06;;;;;;;6.93;6.20;;;;;;;34.57;34.05;96509.34;5067733;28;20043;-77
2022/07/24 10:27:34;;;;;;;8.40;6.25;;;;;;;35.17;31.01;96511.81;5085981;28;20449;-77
2022/07/24 10:30:04;;;;;;;7.60;6.40;;;;;;;35.23;30.70;96513.31;5059843;28;20040;-77
2022/07/24 10:32:31;;;;;;;9.57;6.25;;;;;;;35.06;30.28;96510.44;5078655;28;20083;-77
2022/07/24 10:35:08;;;;;;;7.07;6.30;;;;;;;35.32;30.69;96507.91;5074005;28;20050;-76
2022/07/24 10:37:37;;;;;;;6.28;5.53;;;;;;;35.01;31.80;96505.06;5055005;28;20147;-77
2022/07/24 10:40:12;;;;;;;7.40;6.22;;;;;;;34.73;32.34;96505.16;5060109;28;20442;-77
2022/07/24 10:43:06;;;;;;;7.07;6.38;;;;;;;35.62;30.96;96501.66;5062900;28;20125;-77
2022/07/24 10:45:33;;;;;;;7.70;6.93;;;;;;;34.72;30.62;96503.56;5067364;28;20031;-77
2022/07/24 10:48:22;;;;;;;8.10;7.13;;;;;;;35.51;30.28;96502.19;5082304;28;20539;-77
2022/07/24 10:50:57;;;;;;;7.70;6.35;;;;;;;35.96;30.69;96499.41;5034182;28;20055;-77
2022/07/24 10:53:24;;;;;;;7.70;6.47;;;;;;;36.44;29.84;96495.84;5060265;28;20046;-77
2022/07/24 10:55:49;;;;;;;8.43;7.20;;;;;;;34.12;31.94;96501.78;5061681;28;20038;-77
2022/07/24 10:58:15;;;;;;;12.95;11.65;;;;;;;34.24;32.54;96504.84;5063017;28;20019;-77
2022/07/24 11:00:54;;;;;;;8.60;7.47;;;;;;;35.62;29.70;96496.19;5045019;28;20501;-77
2022/07/24 11:03:26;;;;;;;;;;;;;;;34.40;30.83;96488.91;5055361;28;20032;-79
2022/07/24 11:06:12;;;;;;;9.75;7.35;;;;;;;33.74;32.80;96491.06;5058946;28;19912;-78
2022/07/24 11:08:39;;;;;;;10.05;7.15;;;;;;;35.52;29.98;96482.00;5083634;28;20039;-78
2022/07/24 11:11:09;;;;;;;9.38;6.72;;;;;;;35.28;30.84;96488.59;5084763;28;20069;-78
2022/07/24 11:13:47;;;;;;;8.43;7.43;;;;;;;35.16;30.55;96480.94;5065619;28;20040;-77
2022/07/24 11:16:15;;;;;;;9.23;7.70;;;;;;;35.08;29.36;96481.69;5049750;28;20036;-78
2022/07/24 11:19:02;;;;;;;10.38;8.68;;;;;;;35.27;28.26;96480.69;5046774;28;20032;-78
2022/07/24 11:21:41;;;;;;;9.15;8.15;;;;;;;35.11;28.46;96486.53;5052603;28;20037;-78
2022/07/24 11:24:19;;;;;;;9.80;8.65;;;;;;;35.30;28.30;96474.59;5069399;28;20127;-77
2022/07/24 11:26:52;;;;;;;9.57;8.50;;;;;;;34.96;29.71;96475.94;5053315;28;20492;-77
2022/07/24 11:29:35;;;;;;;8.85;7.30;;;;;;;34.94;29.94;96467.22;5037706;28;20316;-77
2022/07/24 11:32:17;;;;;;;8.40;7.60;;;;;;;36.43;28.84;96467.66;5030605;28;20039;-76
2022/07/24 11:34:49;;;;;;;9.75;7.40;;;;;;;36.66;27.02;96467.56;5065423;28;20531;-78
2022/07/24 11:37:16;;;;;;;7.85;7.03;;;;;;;35.52;28.58;96463.66;5059533;28;20119;-78